EJA409 KVJI-MYNN
Flight info
| Callsign | EJA409 |
|---|---|
| Flight time | N/A |
| Altitude | 31000 |
| Route | HMV DCT HRTWL Q77 ETORE DCT ONEWY DCT EBAYY DCT FOMGU Y624 ZFP BR65V PEACH |
| Aircraft | C68A/M-SDFGHRWY/SB1 |
Departure
| Time | 2026-05-04 21:38 |
|---|---|
| Airport | Virginia Highlands Airport (KVJI) |
Arrival
| Time | N/A |
|---|---|
| Airport | Lynden Pindling International Airport (MYNN) |
| Time | Latitude | Longitude | Altitude | Speed | Heading |
|---|---|---|---|---|---|
| 2026-05-04 21:26 | 36.68543 | -82.03378 | 2076 ft | 0 kts | 237° |
| 2026-05-04 21:33 | 36.68538 | -82.03388 | 2076 ft | 7 kts | 237° |
| 2026-05-04 21:33 | 36.68519 | -82.03429 | 2076 ft | 3 kts | 255° |
| 2026-05-04 21:33 | 36.68536 | -82.03458 | 2076 ft | 9 kts | 320° |
| 2026-05-04 21:33 | 36.68585 | -82.03419 | 2075 ft | 11 kts | 57° |
| 2026-05-04 21:34 | 36.68636 | -82.03324 | 2073 ft | 15 kts | 56° |
| 2026-05-04 21:34 | 36.68701 | -82.03205 | 2072 ft | 19 kts | 54° |
| 2026-05-04 21:34 | 36.68774 | -82.03070 | 2070 ft | 18 kts | 56° |
| 2026-05-04 21:34 | 36.68843 | -82.02944 | 2072 ft | 17 kts | 56° |
| 2026-05-04 21:35 | 36.68907 | -82.02824 | 2072 ft | 16 kts | 56° |
| 2026-05-04 21:35 | 36.68944 | -82.02758 | 2070 ft | 3 kts | 48° |
| 2026-05-04 21:35 | 36.68945 | -82.02757 | 2070 ft | 0 kts | 47° |
| 2026-05-04 21:36 | 36.68964 | -82.02743 | 2073 ft | 7 kts | 25° |
| 2026-05-04 21:36 | 36.69026 | -82.02710 | 2075 ft | 10 kts | 22° |
| 2026-05-04 21:36 | 36.69039 | -82.02730 | 2075 ft | 5 kts | 226° |
| 2026-05-04 21:37 | 36.69031 | -82.02743 | 2075 ft | 0 kts | 236° |
| 2026-05-04 21:38 | 36.68860 | -82.03058 | 2072 ft | 93 kts | 236° |
| 2026-05-04 21:38 | 36.68325 | -82.04037 | 2263 ft | 172 kts | 238° |
| 2026-05-04 21:38 | 36.67535 | -82.05440 | 3020 ft | 218 kts | 223° |
| 2026-05-04 21:38 | 36.66143 | -82.06271 | 4383 ft | 229 kts | 191° |
| 2026-05-04 21:39 | 36.64518 | -82.06180 | 5597 ft | 248 kts | 174° |
| 2026-05-04 21:39 | 36.62783 | -82.05774 | 6653 ft | 256 kts | 173° |
| 2026-05-04 21:39 | 36.61047 | -82.05368 | 7671 ft | 250 kts | 173° |
| 2026-05-04 21:39 | 36.59358 | -82.04926 | 8717 ft | 245 kts | 173° |
| 2026-05-04 21:40 | 36.57717 | -82.04442 | 9796 ft | 240 kts | 173° |
| 2026-05-04 21:40 | 36.56080 | -82.03920 | 10949 ft | 243 kts | 174° |
| 2026-05-04 21:40 | 36.54435 | -82.03852 | 12294 ft | 235 kts | 198° |
| 2026-05-04 21:40 | 36.52805 | -82.04255 | 13511 ft | 244 kts | 195° |
| 2026-05-04 21:41 | 36.51665 | -82.04388 | 14279 ft | 252 kts | 190° |
| 2026-05-04 21:41 | 36.49290 | -82.04459 | 15697 ft | 262 kts | 188° |
| 2026-05-04 21:41 | 36.47442 | -82.04533 | 16770 ft | 270 kts | 188° |
| 2026-05-04 21:41 | 36.45555 | -82.04641 | 17938 ft | 270 kts | 188° |
| 2026-05-04 21:42 | 36.44302 | -82.04715 | 18563 ft | 275 kts | 188° |
| 2026-05-04 21:42 | 36.42347 | -82.04809 | 19505 ft | 279 kts | 188° |
| 2026-05-04 21:42 | 36.39757 | -82.04933 | 20768 ft | 284 kts | 188° |
| 2026-05-04 21:42 | 36.38442 | -82.05000 | 21378 ft | 287 kts | 189° |
| 2026-05-04 21:43 | 36.36505 | -82.05099 | 22264 ft | 291 kts | 188° |
| 2026-05-04 21:43 | 36.34471 | -82.05199 | 23151 ft | 295 kts | 189° |
| 2026-05-04 21:43 | 36.32406 | -82.05305 | 23951 ft | 299 kts | 189° |
| 2026-05-04 21:43 | 36.30315 | -82.05409 | 24670 ft | 302 kts | 189° |
| 2026-05-04 21:44 | 36.28200 | -82.05513 | 25401 ft | 306 kts | 189° |
| 2026-05-04 21:44 | 36.26056 | -82.05623 | 26127 ft | 310 kts | 190° |
| 2026-05-04 21:44 | 36.23893 | -82.05730 | 26837 ft | 313 kts | 190° |
| 2026-05-04 21:44 | 36.21707 | -82.05840 | 27518 ft | 317 kts | 190° |
| 2026-05-04 21:45 | 36.19487 | -82.05951 | 28202 ft | 320 kts | 190° |
| 2026-05-04 21:45 | 36.17248 | -82.06064 | 28880 ft | 324 kts | 190° |
| 2026-05-04 21:45 | 36.15004 | -82.06176 | 29439 ft | 329 kts | 190° |
| 2026-05-04 21:45 | 36.12706 | -82.06287 | 30140 ft | 331 kts | 190° |
| 2026-05-04 21:46 | 36.10391 | -82.06406 | 30695 ft | 334 kts | 190° |
| 2026-05-04 21:46 | 36.08042 | -82.06524 | 30987 ft | 345 kts | 190° |
| 2026-05-04 21:46 | 36.05600 | -82.06651 | 30994 ft | 355 kts | 189° |
| 2026-05-04 21:46 | 36.03099 | -82.06773 | 30996 ft | 366 kts | 189° |
| 2026-05-04 21:47 | 36.00510 | -82.06904 | 31006 ft | 377 kts | 189° |
| 2026-05-04 21:47 | 35.97847 | -82.07034 | 30998 ft | 391 kts | 189° |
| 2026-05-04 21:47 | 35.95072 | -82.07173 | 30998 ft | 407 kts | 189° |
| 2026-05-04 21:47 | 35.92193 | -82.07315 | 30996 ft | 422 kts | 188° |
| 2026-05-04 21:48 | 35.89197 | -82.07464 | 31002 ft | 437 kts | 188° |
| 2026-05-04 21:48 | 35.86113 | -82.07614 | 31007 ft | 448 kts | 188° |
| 2026-05-04 21:48 | 35.82973 | -82.07769 | 30998 ft | 455 kts | 188° |
| 2026-05-04 21:49 | 35.76638 | -82.08075 | 30992 ft | 454 kts | 188° |
| 2026-05-04 21:49 | 35.70832 | -82.08368 | 31005 ft | 453 kts | 188° |
| 2026-05-04 21:50 | 35.64523 | -82.08677 | 31016 ft | 454 kts | 188° |
| 2026-05-04 21:50 | 35.58188 | -82.08989 | 31021 ft | 455 kts | 188° |
| 2026-05-04 21:51 | 35.51871 | -82.09299 | 31023 ft | 454 kts | 188° |
| 2026-05-04 21:51 | 35.45585 | -82.09608 | 31024 ft | 454 kts | 188° |
| 2026-05-04 21:52 | 35.39260 | -82.09919 | 31020 ft | 454 kts | 188° |
| 2026-05-04 21:52 | 35.32939 | -82.10228 | 31021 ft | 454 kts | 188° |
| 2026-05-04 21:53 | 35.26620 | -82.10538 | 31012 ft | 455 kts | 188° |
| 2026-05-04 21:53 | 35.20891 | -82.10816 | 31010 ft | 453 kts | 188° |
| 2026-05-04 21:54 | 35.14449 | -82.11129 | 31008 ft | 453 kts | 188° |